Northern Seward Peninsula Fax Sheet

SIGMETs

Area Forecast for Northern Seward Peninsula
NRN SEWARD PEN AND LWR KOBUK VLY FI...VALID UNTIL 251600
...CLOUDS/WX...
***AIRMET STG SFC WND***TIL 08Z OFSHR OUTER CST SUSTAINED SFC WND
30KTS OR GTR. WKN...
***AIRMET IFR***PAVL N OCNL CIG BLW 010/VIS BLW 3SM BR/-RA BR.
NC...
***AIRMET MT OBSC***NRN MTS OCNL OBSC BY CLDS/PCPN. NC... OTRW
PAVL N SCT005 BKN015 TOP 060 INCRG LYRS TO 150. OCNL -RA.
ELSW SCT025 SCT040 BKN050 TOP 150 CI ABV. OCNL BKN040 -RA.
TIL 08Z OFSHR OUTER CST SFC WND S 30G40KT.
ALG OUTER CST SFC WIND S 20G30KT.
OTLK VALID 251600-252200...PAVL N IFR CIG RA BR. ELSW VFR.
...TURB...
N PAWN ISOL MOD TURB SFC-060. ELSW NIL SIG.
...ICE AND FZLVL...
NIL SIG. FZLVL 045 E TO 070 W.

TAFs
PAOT 250537Z 2506/2606 21007KT P6SM OVC045
     FM260000 14006KT P6SM SCT250=
PAOM 250537Z 2506/2606 17007KT P6SM OVC020
     FM260000 15010KT P6SM BKN050=

Observations
PAOM  AA 25 0953Z OVC028                    10          46  43 07004     008  89%  44    
PAVL  AA 25 0953Z OVC014                 1 3/4 F        43  32 18015     998  65%  35    
PAOT  AA 25 0953Z OVC055                    10          50  39 26006     005  66%  47    
PADE  AA 25 0953Z OVC070                    10          51  41 00000     004  68%  51    
PAPO  AA 25 0956Z BKN029 OVC040              3 F        40  38 21016     991  92%  31    
PASH  AA 25 0956Z OVC075                    10          46  37 20012     008  71%  40    
PASK  AA 25 0956Z OVC055                    10          51  43 12006     007  74%  48    
PABL  AA 25 0956Z BKN046 BKN060 OVC080      10          52  39 22010     007  61%  48    
PAGL  AA 25 0956Z OVC024                    10          48  36 00000     014  63%  48    
PAKK  AA 25 0956Z OVC026                    10          46  27 28004     009  47%  44    
PAIK  AA 25 1001Z OVC050                    10          49  42 26004     008  77%  47    
PALU  AA 25 0955Z SCT011 BKN031 BKN200      10          45  41 24030G65  982  86%  35    
PATC  AA 25 0955Z BKN002                     6          41  41 20021     003 100%  31    

Pilot Reports